sensor_id;sensor_type;location;lat;lon;timestamp;pressure;altitude;pressure_sealevel;temperature;humidity
35419;BME280;21525;41.240;16.500;2023-04-01T00:00:12;100519.03;;;23.81;38.01
35419;BME280;21525;41.240;16.500;2023-04-01T00:02:38;100530.00;;;23.26;39.00
35419;BME280;21525;41.240;16.500;2023-04-01T00:05:05;100535.81;;;23.43;38.85
35419;BME280;21525;41.240;16.500;2023-04-01T00:07:31;100545.31;;;22.83;40.16
35419;BME280;21525;41.240;16.500;2023-04-01T00:09:58;100546.34;;;22.80;40.09
35419;BME280;21525;41.240;16.500;2023-04-01T00:12:24;100546.91;;;22.58;40.79
35419;BME280;21525;41.240;16.500;2023-04-01T00:14:50;100534.50;;;22.32;41.46
35419;BME280;21525;41.240;16.500;2023-04-01T00:17:16;100522.28;;;22.02;41.89
35419;BME280;21525;41.240;16.500;2023-04-01T00:19:42;100518.03;;;22.54;40.41
35419;BME280;21525;41.240;16.500;2023-04-01T00:22:08;100513.09;;;22.74;39.78
35419;BME280;21525;41.240;16.500;2023-04-01T00:24:37;100509.31;;;23.05;38.48
35419;BME280;21525;41.240;16.500;2023-04-01T00:27:03;100500.09;;;22.71;38.39
35419;BME280;21525;41.240;16.500;2023-04-01T00:29:29;100511.22;;;22.76;37.98
35419;BME280;21525;41.240;16.500;2023-04-01T00:31:57;100527.44;;;22.72;38.17
35419;BME280;21525;41.240;16.500;2023-04-01T00:34:23;100531.44;;;22.92;37.92
35419;BME280;21525;41.240;16.500;2023-04-01T00:36:50;100529.44;;;22.95;37.79
35419;BME280;21525;41.240;16.500;2023-04-01T00:39:16;100526.25;;;22.63;39.14
35419;BME280;21525;41.240;16.500;2023-04-01T00:41:42;100526.06;;;22.39;39.66
35419;BME280;21525;41.240;16.500;2023-04-01T00:44:36;100508.19;;;22.56;39.43
35419;BME280;21525;41.240;16.500;2023-04-01T00:47:00;100506.47;;;22.82;38.82
35419;BME280;21525;41.240;16.500;2023-04-01T00:49:29;100514.38;;;22.96;37.78
35419;BME280;21525;41.240;16.500;2023-04-01T00:51:58;100526.50;;;23.38;37.28
35419;BME280;21525;41.240;16.500;2023-04-01T00:54:25;100529.78;;;23.03;38.29
35419;BME280;21525;41.240;16.500;2023-04-01T00:56:59;100528.00;;;22.50;39.26
35419;BME280;21525;41.240;16.500;2023-04-01T00:59:52;100519.88;;;22.93;38.48
35419;BME280;21525;41.240;16.500;2023-04-01T01:02:20;100520.69;;;22.81;37.90
35419;BME280;21525;41.240;16.500;2023-04-01T01:04:46;100520.13;;;23.02;37.42
35419;BME280;21525;41.240;16.500;2023-04-01T01:37:12;100486.47;;;23.03;37.14
35419;BME280;21525;41.240;16.500;2023-04-01T01:39:39;100486.03;;;22.96;37.40
35419;BME280;21525;41.240;16.500;2023-04-01T01:42:09;100477.66;;;22.90;37.50
35419;BME280;21525;41.240;16.500;2023-04-01T01:44:38;100463.78;;;22.99;37.51
35419;BME280;21525;41.240;16.500;2023-04-01T01:47:05;100463.31;;;22.79;37.94
35419;BME280;21525;41.240;16.500;2023-04-01T01:49:32;100462.97;;;22.71;37.68
35419;BME280;21525;41.240;16.500;2023-04-01T01:51:59;100465.66;;;22.84;37.85
35419;BME280;21525;41.240;16.500;2023-04-01T01:54:25;100459.09;;;23.02;37.71
35419;BME280;21525;41.240;16.500;2023-04-01T01:56:57;100454.00;;;23.12;38.07
35419;BME280;21525;41.240;16.500;2023-04-01T01:59:28;100459.63;;;23.20;37.65
35419;BME280;21525;41.240;16.500;2023-04-01T02:01:55;100458.78;;;23.32;38.04
35419;BME280;21525;41.240;16.500;2023-04-01T02:04:22;100466.50;;;22.85;38.53
35419;BME280;21525;41.240;16.500;2023-04-01T02:06:59;100457.03;;;22.68;38.77
35419;BME280;21525;41.240;16.500;2023-04-01T02:09:28;100444.81;;;22.65;38.93
35419;BME280;21525;41.240;16.500;2023-04-01T02:12:02;100439.09;;;22.71;39.02
35419;BME280;21525;41.240;16.500;2023-04-01T02:14:54;100403.41;;;22.90;38.87
35419;BME280;21525;41.240;16.500;2023-04-01T02:17:26;100418.47;;;23.02;39.01
35419;BME280;21525;41.240;16.500;2023-04-01T02:19:56;100423.50;;;22.67;39.92
35419;BME280;21525;41.240;16.500;2023-04-01T02:22:29;100425.84;;;22.71;39.71
35419;BME280;21525;41.240;16.500;2023-04-01T02:25:00;100430.31;;;23.09;39.25
35419;BME280;21525;41.240;16.500;2023-04-01T02:27:28;100420.38;;;23.00;39.48
35419;BME280;21525;41.240;16.500;2023-04-01T02:29:54;100414.66;;;22.41;40.45
35419;BME280;21525;41.240;16.500;2023-04-01T02:32:20;100411.84;;;22.69;40.97
35419;BME280;21525;41.240;16.500;2023-04-01T02:34:46;100410.94;;;22.31;41.54
35419;BME280;21525;41.240;16.500;2023-04-01T02:37:13;100389.09;;;22.00;42.35
35419;BME280;21525;41.240;16.500;2023-04-01T02:39:39;100374.44;;;22.09;42.30
35419;BME280;21525;41.240;16.500;2023-04-01T02:42:06;100374.69;;;22.31;42.42
35419;BME280;21525;41.240;16.500;2023-04-01T02:44:32;100379.81;;;22.72;42.08
35419;BME280;21525;41.240;16.500;2023-04-01T02:46:58;100395.38;;;22.39;42.42
35419;BME280;21525;41.240;16.500;2023-04-01T02:49:24;100392.28;;;22.32;42.37
35419;BME280;21525;41.240;16.500;2023-04-01T02:51:49;100397.19;;;22.11;43.17
35419;BME280;21525;41.240;16.500;2023-04-01T02:54:18;100385.53;;;22.14;43.07
35419;BME280;21525;41.240;16.500;2023-04-01T02:56:44;100384.19;;;22.21;43.49
35419;BME280;21525;41.240;16.500;2023-04-01T02:59:11;100374.38;;;22.49;43.18
35419;BME280;21525;41.240;16.500;2023-04-01T03:01:37;100375.53;;;22.32;43.29
35419;BME280;21525;41.240;16.500;2023-04-01T03:04:04;100376.13;;;22.23;44.02
35419;BME280;21525;41.240;16.500;2023-04-01T03:06:30;100371.97;;;22.06;44.35
35419;BME280;21525;41.240;16.500;2023-04-01T03:08:56;100357.09;;;22.56;43.77
35419;BME280;21525;41.240;16.500;2023-04-01T03:11:22;100353.75;;;22.01;44.32
35419;BME280;21525;41.240;16.500;2023-04-01T03:13:48;100326.56;;;22.37;44.39
35419;BME280;21525;41.240;16.500;2023-04-01T03:16:15;100323.91;;;22.50;44.50
35419;BME280;21525;41.240;16.500;2023-04-01T03:18:40;100324.19;;;23.22;43.68
35419;BME280;21525;41.240;16.500;2023-04-01T03:21:15;100318.75;;;22.61;44.96
35419;BME280;21525;41.240;16.500;2023-04-01T03:23:41;100306.53;;;22.71;44.68
35419;BME280;21525;41.240;16.500;2023-04-01T03:26:06;100310.03;;;22.85;45.19
35419;BME280;21525;41.240;16.500;2023-04-01T03:28:33;100315.25;;;22.86;45.16
35419;BME280;21525;41.240;16.500;2023-04-01T03:31:00;100325.38;;;23.67;43.52
35419;BME280;21525;41.240;16.500;2023-04-01T03:33:29;100341.00;;;22.71;45.01
35419;BME280;21525;41.240;16.500;2023-04-01T03:35:55;100332.31;;;22.82;45.71
35419;BME280;21525;41.240;16.500;2023-04-01T03:38:21;100330.16;;;22.49;45.67
35419;BME280;21525;41.240;16.500;2023-04-01T03:40:46;100338.31;;;23.09;44.89
35419;BME280;21525;41.240;16.500;2023-04-01T03:43:12;100328.28;;;22.89;45.21
35419;BME280;21525;41.240;16.500;2023-04-01T03:45:49;100310.38;;;23.29;45.15
35419;BME280;21525;41.240;16.500;2023-04-01T03:48:16;100288.13;;;23.19;44.78
35419;BME280;21525;41.240;16.500;2023-04-01T03:50:42;100282.25;;;22.90;45.10
35419;BME280;21525;41.240;16.500;2023-04-01T03:53:10;100289.84;;;23.44;45.19
35419;BME280;21525;41.240;16.500;2023-04-01T03:55:40;100290.25;;;24.09;43.26
35419;BME280;21525;41.240;16.500;2023-04-01T03:58:07;100280.97;;;23.32;45.04
35419;BME280;21525;41.240;16.500;2023-04-01T04:00:34;100267.09;;;23.29;45.08
35419;BME280;21525;41.240;16.500;2023-04-01T04:03:01;100260.31;;;23.72;44.21
35419;BME280;21525;41.240;16.500;2023-04-01T04:05:31;100298.63;;;23.57;44.14
35419;BME280;21525;41.240;16.500;2023-04-01T04:07:57;100318.22;;;23.91;43.76
35419;BME280;21525;41.240;16.500;2023-04-01T04:10:23;100319.97;;;23.56;44.48
35419;BME280;21525;41.240;16.500;2023-04-01T04:12:50;100326.22;;;23.18;44.83
35419;BME280;21525;41.240;16.500;2023-04-01T04:15:17;100331.75;;;23.64;44.37
35419;BME280;21525;41.240;16.500;2023-04-01T04:17:45;100335.81;;;23.44;44.35
35419;BME280;21525;41.240;16.500;2023-04-01T04:20:11;100341.63;;;23.62;44.71
35419;BME280;21525;41.240;16.500;2023-04-01T04:22:37;100337.72;;;24.03;43.15
35419;BME280;21525;41.240;16.500;2023-04-01T04:25:06;100342.44;;;23.26;44.54
35419;BME280;21525;41.240;16.500;2023-04-01T04:27:33;100338.97;;;23.62;43.67
35419;BME280;21525;41.240;16.500;2023-04-01T04:30:07;100320.34;;;23.38;44.34
35419;BME280;21525;41.240;16.500;2023-04-01T04:32:33;100322.13;;;23.01;44.58
35419;BME280;21525;41.240;16.500;2023-04-01T04:34:59;100319.81;;;23.94;43.21
35419;BME280;21525;41.240;16.500;2023-04-01T04:37:25;100327.94;;;23.56;43.92
35419;BME280;21525;41.240;16.500;2023-04-01T04:39:52;100323.19;;;23.72;43.68
35419;BME280;21525;41.240;16.500;2023-04-01T04:42:18;100325.16;;;23.81;42.68
35419;BME280;21525;41.240;16.500;2023-04-01T04:44:44;100330.06;;;23.51;42.92
35419;BME280;21525;41.240;16.500;2023-04-01T04:47:10;100316.81;;;23.74;42.80
35419;BME280;21525;41.240;16.500;2023-04-01T04:49:36;100305.09;;;23.77;43.07
35419;BME280;21525;41.240;16.500;2023-04-01T04:52:06;100312.41;;;24.21;42.29
35419;BME280;21525;41.240;16.500;2023-04-01T04:54:33;100310.16;;;23.69;42.59
35419;BME280;21525;41.240;16.500;2023-04-01T04:57:00;100301.22;;;24.05;41.19
35419;BME280;21525;41.240;16.500;2023-04-01T04:59:30;100294.09;;;24.29;40.80
35419;BME280;21525;41.240;16.500;2023-04-01T05:02:07;100293.31;;;23.81;40.93
35419;BME280;21525;41.240;16.500;2023-04-01T05:04:36;100297.53;;;23.84;41.17
35419;BME280;21525;41.240;16.500;2023-04-01T05:07:04;100295.88;;;23.46;41.32
35419;BME280;21525;41.240;16.500;2023-04-01T05:09:31;100283.63;;;23.80;41.09
35419;BME280;21525;41.240;16.500;2023-04-01T05:11:58;100290.00;;;23.66;41.35
35419;BME280;21525;41.240;16.500;2023-04-01T05:14:25;100274.25;;;23.87;40.80
35419;BME280;21525;41.240;16.500;2023-04-01T05:16:58;100288.22;;;24.02;40.61
35419;BME280;21525;41.240;16.500;2023-04-01T05:19:24;100296.16;;;24.48;40.05
35419;BME280;21525;41.240;16.500;2023-04-01T05:21:50;100308.28;;;24.74;39.42
35419;BME280;21525;41.240;16.500;2023-04-01T05:24:16;100317.22;;;24.85;39.08
35419;BME280;21525;41.240;16.500;2023-04-01T05:26:42;100314.34;;;25.10;38.92
35419;BME280;21525;41.240;16.500;2023-04-01T05:29:08;100324.91;;;24.43;39.22
35419;BME280;21525;41.240;16.500;2023-04-01T05:31:33;100325.44;;;24.70;39.32
35419;BME280;21525;41.240;16.500;2023-04-01T05:33:59;100341.75;;;24.55;39.53
35419;BME280;21525;41.240;16.500;2023-04-01T05:36:25;100343.34;;;24.79;39.10
35419;BME280;21525;41.240;16.500;2023-04-01T05:38:55;100347.53;;;24.49;39.41
35419;BME280;21525;41.240;16.500;2023-04-01T05:41:21;100352.16;;;24.80;39.17
35419;BME280;21525;41.240;16.500;2023-04-01T05:43:47;100361.84;;;24.81;38.60
35419;BME280;21525;41.240;16.500;2023-04-01T05:46:33;100364.72;;;25.78;37.72
35419;BME280;21525;41.240;16.500;2023-04-01T05:49:20;100375.00;;;25.72;37.69
35419;BME280;21525;41.240;16.500;2023-04-01T05:51:46;100374.28;;;24.69;38.77
35419;BME280;21525;41.240;16.500;2023-04-01T05:54:12;100379.16;;;25.54;38.19
35419;BME280;21525;41.240;16.500;2023-04-01T05:56:39;100382.50;;;25.89;37.52
35419;BME280;21525;41.240;16.500;2023-04-01T05:59:04;100374.16;;;26.15;37.09
35419;BME280;21525;41.240;16.500;2023-04-01T06:01:31;100378.94;;;26.94;36.18
35419;BME280;21525;41.240;16.500;2023-04-01T06:03:57;100370.25;;;28.01;34.85
35419;BME280;21525;41.240;16.500;2023-04-01T06:06:29;100374.84;;;27.70;34.32
35419;BME280;21525;41.240;16.500;2023-04-01T06:09:16;100394.16;;;26.83;36.10
35419;BME280;21525;41.240;16.500;2023-04-01T06:19:57;100379.66;;;34.13;26.91
35419;BME280;21525;41.240;16.500;2023-04-01T06:25:54;100387.41;;;34.76;25.85
35419;BME280;21525;41.240;16.500;2023-04-01T06:40:16;100377.56;;;35.78;24.62
35419;BME280;21525;41.240;16.500;2023-04-01T06:54:40;100406.31;;;36.92;24.53
35419;BME280;21525;41.240;16.500;2023-04-01T06:59:54;100393.81;;;37.80;23.63
35419;BME280;21525;41.240;16.500;2023-04-01T07:04:51;100397.06;;;38.50;22.78
35419;BME280;21525;41.240;16.500;2023-04-01T07:07:31;100403.34;;;37.56;23.57
35419;BME280;21525;41.240;16.500;2023-04-01T07:10:16;100417.56;;;36.89;24.16
35419;BME280;21525;41.240;16.500;2023-04-01T07:13:15;100417.97;;;35.65;25.15
35419;BME280;21525;41.240;16.500;2023-04-01T07:20:58;100422.41;;;34.69;26.74
35419;BME280;21525;41.240;16.500;2023-04-01T07:23:29;100420.31;;;34.94;26.04
35419;BME280;21525;41.240;16.500;2023-04-01T07:26:19;100432.41;;;33.61;26.98
35419;BME280;21525;41.240;16.500;2023-04-01T07:29:12;100431.34;;;33.23;28.01
35419;BME280;21525;41.240;16.500;2023-04-01T07:45:31;100428.22;;;33.51;27.93
35419;BME280;21525;41.240;16.500;2023-04-01T07:53:36;100425.59;;;33.43;29.07
35419;BME280;21525;41.240;16.500;2023-04-01T07:56:11;100419.28;;;34.12;28.78
35419;BME280;21525;41.240;16.500;2023-04-01T07:59:07;100422.25;;;33.16;28.33
35419;BME280;21525;41.240;16.500;2023-04-01T08:05:09;100415.41;;;33.05;28.05
35419;BME280;21525;41.240;16.500;2023-04-01T08:22:27;100410.00;;;33.92;26.48
35419;BME280;21525;41.240;16.500;2023-04-01T08:25:01;100412.53;;;33.54;27.54
35419;BME280;21525;41.240;16.500;2023-04-01T08:27:34;100410.97;;;33.68;27.41
35419;BME280;21525;41.240;16.500;2023-04-01T08:30:16;100410.53;;;33.01;27.29
35419;BME280;21525;41.240;16.500;2023-04-01T08:32:51;100428.94;;;32.81;27.48
35419;BME280;21525;41.240;16.500;2023-04-01T08:38:01;100427.41;;;32.38;28.39
35419;BME280;21525;41.240;16.500;2023-04-01T08:40:48;100424.53;;;32.64;28.35
35419;BME280;21525;41.240;16.500;2023-04-01T08:54:19;100418.78;;;32.91;26.74
35419;BME280;21525;41.240;16.500;2023-04-01T09:00:32;100412.81;;;31.74;27.21
35419;BME280;21525;41.240;16.500;2023-04-01T09:08:46;100415.88;;;31.87;26.58
35419;BME280;21525;41.240;16.500;2023-04-01T09:11:38;100423.13;;;30.93;26.77
35419;BME280;21525;41.240;16.500;2023-04-01T09:20:42;100423.28;;;31.43;27.18
35419;BME280;21525;41.240;16.500;2023-04-01T09:28:49;100429.59;;;32.59;26.58
35419;BME280;21525;41.240;16.500;2023-04-01T09:34:45;100435.75;;;32.11;26.09
35419;BME280;21525;41.240;16.500;2023-04-01T09:37:21;100444.91;;;32.58;25.39
35419;BME280;21525;41.240;16.500;2023-04-01T09:40:16;100437.81;;;32.57;25.73
35419;BME280;21525;41.240;16.500;2023-04-01T09:51:25;100429.81;;;31.91;26.40
35419;BME280;21525;41.240;16.500;2023-04-01T09:56:58;100430.34;;;31.94;26.64
35419;BME280;21525;41.240;16.500;2023-04-01T10:12:04;100436.41;;;31.54;26.48
35419;BME280;21525;41.240;16.500;2023-04-01T10:35:06;100429.59;;;32.43;25.34
35419;BME280;21525;41.240;16.500;2023-04-01T11:15:11;100490.38;;;27.02;40.47
35419;BME280;21525;41.240;16.500;2023-04-01T11:18:02;100482.22;;;27.24;39.63
35419;BME280;21525;41.240;16.500;2023-04-01T11:29:52;100493.31;;;25.92;43.31
35419;BME280;21525;41.240;16.500;2023-04-01T11:44:22;100489.00;;;26.11;43.32
35419;BME280;21525;41.240;16.500;2023-04-01T11:48:07;100494.59;;;26.08;43.28
35419;BME280;21525;41.240;16.500;2023-04-01T12:14:19;100511.44;;;25.42;45.85
35419;BME280;21525;41.240;16.500;2023-04-01T12:16:55;100518.31;;;26.34;44.11
35419;BME280;21525;41.240;16.500;2023-04-01T12:24:44;100510.97;;;26.58;42.99
35419;BME280;21525;41.240;16.500;2023-04-01T12:27:14;100518.19;;;25.35;44.19
35419;BME280;21525;41.240;16.500;2023-04-01T12:41:21;100521.34;;;26.18;39.74
35419;BME280;21525;41.240;16.500;2023-04-01T13:09:18;100514.75;;;27.90;38.24
35419;BME280;21525;41.240;16.500;2023-04-01T13:11:50;100500.34;;;28.31;35.68
35419;BME280;21525;41.240;16.500;2023-04-01T13:22:37;100510.63;;;25.97;40.02
35419;BME280;21525;41.240;16.500;2023-04-01T13:25:26;100515.72;;;26.43;39.59
35419;BME280;21525;41.240;16.500;2023-04-01T13:28:23;100522.97;;;25.98;41.05
35419;BME280;21525;41.240;16.500;2023-04-01T13:33:47;100517.50;;;26.00;42.58
35419;BME280;21525;41.240;16.500;2023-04-01T13:42:23;100513.28;;;25.53;41.89
35419;BME280;21525;41.240;16.500;2023-04-01T13:50:37;100514.44;;;26.27;40.46
35419;BME280;21525;41.240;16.500;2023-04-01T14:04:56;100527.78;;;24.91;42.41
35419;BME280;21525;41.240;16.500;2023-04-01T14:07:56;100524.16;;;26.05;39.88
35419;BME280;21525;41.240;16.500;2023-04-01T14:13:43;100518.13;;;24.06;42.86
35419;BME280;21525;41.240;16.500;2023-04-01T14:18:56;100530.56;;;23.69;43.40
35419;BME280;21525;41.240;16.500;2023-04-01T14:21:58;100529.41;;;25.05;40.78
35419;BME280;21525;41.240;16.500;2023-04-01T14:27:22;100520.75;;;25.48;39.54
35419;BME280;21525;41.240;16.500;2023-04-01T14:38:26;100520.56;;;24.45;40.99
35419;BME280;21525;41.240;16.500;2023-04-01T14:52:04;100511.94;;;25.58;38.74
35419;BME280;21525;41.240;16.500;2023-04-01T14:54:33;100513.00;;;26.00;38.02
35419;BME280;21525;41.240;16.500;2023-04-01T14:57:09;100511.72;;;25.95;38.23
35419;BME280;21525;41.240;16.500;2023-04-01T15:05:29;100505.66;;;25.93;38.14
35419;BME280;21525;41.240;16.500;2023-04-01T15:10:59;100518.09;;;24.55;41.03
35419;BME280;21525;41.240;16.500;2023-04-01T15:16:06;100514.81;;;24.28;41.90
35419;BME280;21525;41.240;16.500;2023-04-01T15:23:56;100506.72;;;25.45;40.28
35419;BME280;21525;41.240;16.500;2023-04-01T15:29:19;100516.81;;;25.07;40.65
35419;BME280;21525;41.240;16.500;2023-04-01T15:45:42;100531.91;;;24.36;42.54
35419;BME280;21525;41.240;16.500;2023-04-01T15:56:18;100529.56;;;24.32;43.65
35419;BME280;21525;41.240;16.500;2023-04-01T16:04:46;100532.50;;;24.40;43.21
35419;BME280;21525;41.240;16.500;2023-04-01T16:10:31;100535.41;;;24.61;43.69
35419;BME280;21525;41.240;16.500;2023-04-01T16:13:24;100533.72;;;23.74;44.93
35419;BME280;21525;41.240;16.500;2023-04-01T16:16:06;100522.75;;;23.78;44.46
35419;BME280;21525;41.240;16.500;2023-04-01T16:19:02;100528.16;;;24.02;44.03
35419;BME280;21525;41.240;16.500;2023-04-01T16:26:45;100521.22;;;23.63;44.20
35419;BME280;21525;41.240;16.500;2023-04-01T16:32:17;100528.72;;;24.55;42.71
35419;BME280;21525;41.240;16.500;2023-04-01T16:34:58;100532.66;;;23.38;45.08
35419;BME280;21525;41.240;16.500;2023-04-01T16:40:20;100537.97;;;24.13;43.74
35419;BME280;21525;41.240;16.500;2023-04-01T16:42:52;100528.81;;;23.93;44.63
35419;BME280;21525;41.240;16.500;2023-04-01T16:45:42;100537.78;;;24.29;43.27
35419;BME280;21525;41.240;16.500;2023-04-01T16:48:14;100538.56;;;23.17;45.40
35419;BME280;21525;41.240;16.500;2023-04-01T16:51:03;100545.16;;;24.00;44.28
35419;BME280;21525;41.240;16.500;2023-04-01T16:53:32;100542.41;;;23.25;45.53
35419;BME280;21525;41.240;16.500;2023-04-01T16:58:41;100541.47;;;23.77;44.57
35419;BME280;21525;41.240;16.500;2023-04-01T17:01:12;100535.69;;;24.69;42.59
35419;BME280;21525;41.240;16.500;2023-04-01T17:03:46;100542.53;;;24.24;43.73
35419;BME280;21525;41.240;16.500;2023-04-01T17:06:23;100534.66;;;23.98;43.77
35419;BME280;21525;41.240;16.500;2023-04-01T17:11:49;100536.50;;;22.82;46.72
35419;BME280;21525;41.240;16.500;2023-04-01T17:14:26;100533.91;;;22.68;46.75
35419;BME280;21525;41.240;16.500;2023-04-01T17:17:18;100544.81;;;22.76;46.68
35419;BME280;21525;41.240;16.500;2023-04-01T17:20:01;100546.19;;;22.96;45.87
35419;BME280;21525;41.240;16.500;2023-04-01T17:25:19;100536.91;;;24.28;43.13
35419;BME280;21525;41.240;16.500;2023-04-01T17:28:24;100525.00;;;23.85;44.33
35419;BME280;21525;41.240;16.500;2023-04-01T17:31:16;100538.69;;;23.78;44.09
35419;BME280;21525;41.240;16.500;2023-04-01T17:36:57;100540.88;;;24.47;43.46
35419;BME280;21525;41.240;16.500;2023-04-01T17:39:41;100532.84;;;24.59;42.91
35419;BME280;21525;41.240;16.500;2023-04-01T17:42:19;100537.03;;;24.14;43.91
35419;BME280;21525;41.240;16.500;2023-04-01T17:47:31;100539.06;;;23.61;45.00
35419;BME280;21525;41.240;16.500;2023-04-01T18:01:30;100530.19;;;23.48;45.99
35419;BME280;21525;41.240;16.500;2023-04-01T18:04:17;100543.38;;;24.24;44.12
35419;BME280;21525;41.240;16.500;2023-04-01T18:12:09;100548.56;;;24.62;43.08
35419;BME280;21525;41.240;16.500;2023-04-01T18:15:05;100539.59;;;23.54;44.34
35419;BME280;21525;41.240;16.500;2023-04-01T18:17:44;100542.13;;;24.54;43.19
35419;BME280;21525;41.240;16.500;2023-04-01T18:20:37;100545.97;;;24.13;44.24
35419;BME280;21525;41.240;16.500;2023-04-01T18:25:45;100558.13;;;23.79;44.18
35419;BME280;21525;41.240;16.500;2023-04-01T18:28:18;100559.41;;;23.99;43.98
35419;BME280;21525;41.240;16.500;2023-04-01T18:30:52;100553.50;;;23.70;44.09
35419;BME280;21525;41.240;16.500;2023-04-01T18:38:36;100562.97;;;23.09;45.89
35419;BME280;21525;41.240;16.500;2023-04-01T18:41:20;100550.66;;;23.08;45.85
35419;BME280;21525;41.240;16.500;2023-04-01T18:52:42;100544.94;;;24.39;43.25
35419;BME280;21525;41.240;16.500;2023-04-01T18:55:21;100553.59;;;24.30;42.99
35419;BME280;21525;41.240;16.500;2023-04-01T18:58:06;100550.94;;;24.78;42.34
35419;BME280;21525;41.240;16.500;2023-04-01T19:00:40;100549.78;;;24.34;42.42
35419;BME280;21525;41.240;16.500;2023-04-01T19:03:32;100550.47;;;24.00;42.92
35419;BME280;21525;41.240;16.500;2023-04-01T19:06:07;100550.25;;;24.03;42.78
35419;BME280;21525;41.240;16.500;2023-04-01T19:08:40;100561.31;;;23.84;43.62
35419;BME280;21525;41.240;16.500;2023-04-01T19:17:00;100549.47;;;24.26;42.51
35419;BME280;21525;41.240;16.500;2023-04-01T19:19:51;100554.25;;;24.08;43.32
35419;BME280;21525;41.240;16.500;2023-04-01T19:25:25;100549.44;;;23.77;43.29
35419;BME280;21525;41.240;16.500;2023-04-01T19:30:54;100536.56;;;23.45;43.76
35419;BME280;21525;41.240;16.500;2023-04-01T19:45:00;100540.22;;;22.79;45.62
35419;BME280;21525;41.240;16.500;2023-04-01T19:47:48;100546.75;;;22.74;45.50
35419;BME280;21525;41.240;16.500;2023-04-01T19:56:16;100524.44;;;23.92;43.79
35419;BME280;21525;41.240;16.500;2023-04-01T20:01:41;100528.38;;;23.87;43.64
35419;BME280;21525;41.240;16.500;2023-04-01T20:12:20;100528.31;;;23.37;44.50
35419;BME280;21525;41.240;16.500;2023-04-01T20:14:56;100529.38;;;23.60;44.51
35419;BME280;21525;41.240;16.500;2023-04-01T20:17:39;100524.47;;;23.41;44.43
35419;BME280;21525;41.240;16.500;2023-04-01T20:23:03;100532.34;;;22.78;44.65
35419;BME280;21525;41.240;16.500;2023-04-01T20:25:46;100532.47;;;23.67;43.41
35419;BME280;21525;41.240;16.500;2023-04-01T20:31:08;100528.72;;;23.82;42.81
35419;BME280;21525;41.240;16.500;2023-04-01T20:45:14;100535.84;;;24.18;39.37
35419;BME280;21525;41.240;16.500;2023-04-01T20:53:36;100537.66;;;24.18;38.03
35419;BME280;21525;41.240;16.500;2023-04-01T21:02:20;100536.41;;;24.47;37.46
35419;BME280;21525;41.240;16.500;2023-04-01T21:07:58;100532.19;;;23.95;38.03
35419;BME280;21525;41.240;16.500;2023-04-01T21:16:37;100535.34;;;24.26;37.81
35419;BME280;21525;41.240;16.500;2023-04-01T21:19:30;100533.75;;;24.47;36.90
35419;BME280;21525;41.240;16.500;2023-04-01T21:27:49;100530.94;;;24.61;36.47
35419;BME280;21525;41.240;16.500;2023-04-01T21:39:05;100542.78;;;24.08;36.18
35419;BME280;21525;41.240;16.500;2023-04-01T21:53:09;100548.31;;;24.05;35.61
35419;BME280;21525;41.240;16.500;2023-04-01T22:07:25;100540.53;;;23.65;36.23
35419;BME280;21525;41.240;16.500;2023-04-01T22:10:17;100544.13;;;23.52;36.25
35419;BME280;21525;41.240;16.500;2023-04-01T22:18:19;100552.28;;;23.74;36.09
35419;BME280;21525;41.240;16.500;2023-04-01T22:31:20;100558.66;;;23.33;36.12
35419;BME280;21525;41.240;16.500;2023-04-01T22:47:04;100575.53;;;23.45;35.92
35419;BME280;21525;41.240;16.500;2023-04-01T22:49:42;100582.59;;;22.94;36.60
35419;BME280;21525;41.240;16.500;2023-04-01T22:52:50;100579.38;;;22.62;37.31
35419;BME280;21525;41.240;16.500;2023-04-01T22:55:24;100580.69;;;23.61;36.50
35419;BME280;21525;41.240;16.500;2023-04-01T22:57:58;100589.28;;;22.99;37.15
35419;BME280;21525;41.240;16.500;2023-04-01T23:00:30;100591.38;;;22.94;37.27
35419;BME280;21525;41.240;16.500;2023-04-01T23:05:27;100589.88;;;22.63;37.74
35419;BME280;21525;41.240;16.500;2023-04-01T23:11:05;100589.19;;;23.13;37.62
35419;BME280;21525;41.240;16.500;2023-04-01T23:13:37;100589.72;;;22.52;38.11
35419;BME280;21525;41.240;16.500;2023-04-01T23:16:05;100592.63;;;22.62;38.11
35419;BME280;21525;41.240;16.500;2023-04-01T23:18:35;100586.47;;;22.61;38.03
35419;BME280;21525;41.240;16.500;2023-04-01T23:21:13;100599.28;;;22.82;37.95
35419;BME280;21525;41.240;16.500;2023-04-01T23:23:57;100594.03;;;22.12;39.12
35419;BME280;21525;41.240;16.500;2023-04-01T23:28:53;100592.88;;;22.71;38.45
35419;BME280;21525;41.240;16.500;2023-04-01T23:34:03;100592.91;;;22.30;38.55
35419;BME280;21525;41.240;16.500;2023-04-01T23:36:31;100591.00;;;22.18;38.61
35419;BME280;21525;41.240;16.500;2023-04-01T23:39:11;100590.53;;;22.40;38.21
35419;BME280;21525;41.240;16.500;2023-04-01T23:41:44;100579.06;;;22.66;38.10
35419;BME280;21525;41.240;16.500;2023-04-01T23:44:12;100576.66;;;22.08;38.79
35419;BME280;21525;41.240;16.500;2023-04-01T23:46:40;100577.56;;;22.21;38.33
35419;BME280;21525;41.240;16.500;2023-04-01T23:49:17;100571.06;;;22.81;37.29
35419;BME280;21525;41.240;16.500;2023-04-01T23:51:58;100572.28;;;21.93;38.54
35419;BME280;21525;41.240;16.500;2023-04-01T23:54:34;100570.03;;;21.72;39.42
35419;BME280;21525;41.240;16.500;2023-04-01T23:57:10;100563.38;;;21.51;39.70
35419;BME280;21525;41.240;16.500;2023-04-01T23:59:37;100565.28;;;21.92;39.34
